createdAt,value
2023-04-22T00:00:54.969Z,100896.22
2023-04-22T00:03:23.028Z,100887.84
2023-04-22T00:05:51.191Z,100891.19
2023-04-22T00:08:18.651Z,100897.25
2023-04-22T00:10:46.237Z,100891.28
2023-04-22T00:13:13.461Z,100895.59
2023-04-22T00:15:41.291Z,100891.66
2023-04-22T00:18:13.865Z,100883.91
2023-04-22T00:20:43.845Z,100884.84
2023-04-22T00:23:11.792Z,100883.31
2023-04-22T00:25:39.785Z,100882.75
2023-04-22T00:28:07.334Z,100880.13
2023-04-22T00:30:35.206Z,100883.00
2023-04-22T00:33:02.579Z,100883.16
2023-04-22T00:35:30.874Z,100880.28
2023-04-22T00:37:58.618Z,100881.13
2023-04-22T00:40:26.064Z,100877.50
2023-04-22T00:42:53.978Z,100877.63
2023-04-22T00:45:21.819Z,100879.41
2023-04-22T00:47:49.527Z,100880.13
2023-04-22T00:50:17.418Z,100887.59
2023-04-22T00:52:45.012Z,100880.63
2023-04-22T00:55:12.613Z,100887.44
2023-04-22T00:57:40.914Z,100886.75
2023-04-22T01:00:10.218Z,100887.22
2023-04-22T01:02:38.783Z,100888.34
2023-04-22T01:05:09.495Z,100896.41
2023-04-22T01:07:36.984Z,100891.97
2023-04-22T01:10:04.626Z,100895.31
2023-04-22T01:12:32.331Z,100898.78
2023-04-22T01:15:04.313Z,100901.78
2023-04-22T01:17:33.908Z,100899.13
2023-04-22T01:20:04.093Z,100898.06
2023-04-22T01:22:37.390Z,100897.31
2023-04-22T01:25:05.320Z,100895.88
2023-04-22T01:27:32.597Z,100896.38
2023-04-22T01:30:00.296Z,100897.72
2023-04-22T01:32:30.695Z,100900.81
2023-04-22T01:34:59.240Z,100894.81
2023-04-22T01:37:26.997Z,100893.13
2023-04-22T01:39:54.765Z,100896.00
2023-04-22T01:42:22.321Z,100889.06
2023-04-22T01:44:50.195Z,100886.19
2023-04-22T01:47:18.148Z,100886.81
2023-04-22T01:49:45.985Z,100883.94
2023-04-22T01:52:14.033Z,100887.53
2023-04-22T01:54:42.067Z,100883.81
2023-04-22T01:57:14.076Z,100889.53
2023-04-22T01:59:42.216Z,100889.91
2023-04-22T02:02:09.973Z,100881.84
2023-04-22T02:04:37.400Z,100887.41
2023-04-22T02:07:05.230Z,100885.00
2023-04-22T02:09:34.473Z,100886.19
2023-04-22T02:12:02.476Z,100878.53
2023-04-22T02:14:30.199Z,100887.03
2023-04-22T02:17:03.488Z,100893.88
2023-04-22T02:19:31.273Z,100896.00
2023-04-22T02:21:59.107Z,100888.97
2023-04-22T02:24:26.905Z,100887.41
2023-04-22T02:26:54.145Z,100887.53
2023-04-22T02:29:22.319Z,100890.84
2023-04-22T02:31:50.544Z,100893.75
2023-04-22T02:34:18.495Z,100888.59
2023-04-22T02:36:46.165Z,100879.84
2023-04-22T02:39:13.468Z,100884.88
2023-04-22T02:41:41.877Z,100884.41
2023-04-22T02:44:09.463Z,100879.84
2023-04-22T02:46:37.447Z,100880.69
2023-04-22T02:49:05.429Z,100885.59
2023-04-22T02:51:33.336Z,100872.88
2023-04-22T02:54:01.147Z,100874.22
2023-04-22T02:56:28.875Z,100875.63
2023-04-22T02:58:56.313Z,100873.84
2023-04-22T03:01:23.999Z,100871.66
2023-04-22T03:03:52.646Z,100870.59
2023-04-22T03:06:23.239Z,100873.72
2023-04-22T03:08:50.961Z,100872.78
2023-04-22T03:11:18.607Z,100872.50
2023-04-22T03:13:46.290Z,100874.69
2023-04-22T03:16:14.019Z,100875.75
2023-04-22T03:18:42.266Z,100881.63
2023-04-22T03:21:11.017Z,100873.22
2023-04-22T03:23:41.087Z,100871.22
2023-04-22T03:26:08.790Z,100872.75
2023-04-22T03:28:36.257Z,100875.41
2023-04-22T03:31:03.621Z,100872.28
2023-04-22T03:33:31.351Z,100868.22
2023-04-22T03:36:08.094Z,100873.22
2023-04-22T03:38:36.118Z,100872.66
2023-04-22T03:41:03.930Z,100875.03
2023-04-22T03:43:39.868Z,100867.22
2023-04-22T03:46:09.806Z,100869.41
2023-04-22T03:48:42.111Z,100865.44
2023-04-22T03:51:14.971Z,100867.25
2023-04-22T03:53:42.607Z,100871.31
2023-04-22T03:56:13.315Z,100857.31
2023-04-22T03:58:45.102Z,100870.22
2023-04-22T04:01:12.543Z,100876.34
2023-04-22T04:03:43.063Z,100873.72
2023-04-22T04:06:12.059Z,100872.53
2023-04-22T04:08:39.384Z,100873.94
2023-04-22T04:11:08.529Z,100880.09
2023-04-22T04:13:35.830Z,100870.59
2023-04-22T04:16:26.195Z,100875.63
2023-04-22T04:19:01.016Z,100882.59
2023-04-22T04:21:29.426Z,100879.59
2023-04-22T04:23:57.201Z,100869.41
2023-04-22T04:26:27.882Z,100871.53
2023-04-22T04:29:02.215Z,100875.38
2023-04-22T04:31:29.628Z,100875.84
2023-04-22T04:33:59.171Z,100872.25
2023-04-22T04:36:29.116Z,100872.50
2023-04-22T04:39:02.279Z,100876.59
2023-04-22T04:41:31.847Z,100870.94
2023-04-22T04:44:00.835Z,100876.59
2023-04-22T04:46:34.877Z,100880.44
2023-04-22T04:49:02.907Z,100884.84
2023-04-22T04:51:33.964Z,100887.13
2023-04-22T04:54:02.133Z,100888.81
2023-04-22T04:56:35.868Z,100889.78
2023-04-22T04:59:03.453Z,100889.09
2023-04-22T05:01:32.210Z,100883.94
2023-04-22T05:04:05.085Z,100874.22
2023-04-22T05:06:32.900Z,100879.50
2023-04-22T05:09:05.391Z,100872.06
2023-04-22T05:11:32.815Z,100878.03
2023-04-22T05:14:02.719Z,100888.38
2023-04-22T05:16:34.977Z,100886.91
2023-04-22T05:19:03.714Z,100883.28
2023-04-22T05:21:31.559Z,100889.81
2023-04-22T05:23:59.387Z,100889.09
2023-04-22T05:26:26.936Z,100897.09
2023-04-22T05:28:54.371Z,100892.38
2023-04-22T05:31:22.637Z,100899.53
2023-04-22T05:33:50.051Z,100903.28
2023-04-22T05:36:17.856Z,100909.13
2023-04-22T05:38:47.447Z,100906.53
2023-04-22T05:41:15.806Z,100908.06
2023-04-22T05:43:43.723Z,100913.34
2023-04-22T05:46:16.022Z,100924.19
2023-04-22T05:48:45.008Z,100914.94
2023-04-22T05:51:32.952Z,100911.75
2023-04-22T05:54:00.882Z,100905.22
2023-04-22T05:56:28.316Z,100915.41
2023-04-22T05:58:56.097Z,100911.19
2023-04-22T06:01:25.303Z,100920.56
2023-04-22T06:04:00.209Z,100922.00
2023-04-22T06:06:28.314Z,100925.72
2023-04-22T06:08:56.007Z,100918.25
2023-04-22T06:11:23.330Z,100928.91
2023-04-22T06:13:50.786Z,100920.47
2023-04-22T06:16:18.873Z,100924.84
2023-04-22T06:18:46.295Z,100932.00
2023-04-22T06:21:15.003Z,100934.22
2023-04-22T06:23:42.708Z,100934.81
2023-04-22T06:26:10.620Z,100928.72
2023-04-22T06:28:38.352Z,100934.31
2023-04-22T06:31:11.100Z,100933.41
2023-04-22T06:33:39.254Z,100931.06
2023-04-22T06:36:07.306Z,100937.84
2023-04-22T06:38:36.242Z,100927.91
2023-04-22T06:41:21.673Z,100941.53
2023-04-22T06:43:50.600Z,100937.38
2023-04-22T06:46:36.499Z,100937.94
2023-04-22T06:49:23.495Z,100934.59
2023-04-22T06:52:09.611Z,100939.09
2023-04-22T06:54:38.414Z,100936.41
2023-04-22T06:57:06.002Z,100937.97
2023-04-22T06:59:33.917Z,100942.16
2023-04-22T07:02:01.380Z,100940.88
2023-04-22T07:04:32.032Z,100953.75
2023-04-22T07:07:00.561Z,100956.66
2023-04-22T07:09:29.132Z,100949.66
2023-04-22T07:11:59.068Z,100949.41
2023-04-22T07:14:30.373Z,100955.28
2023-04-22T07:16:58.816Z,100948.84
2023-04-22T07:19:26.688Z,100950.34
2023-04-22T07:21:54.248Z,100949.63
2023-04-22T07:24:22.079Z,100947.63
2023-04-22T07:26:49.801Z,100948.94
2023-04-22T07:29:17.190Z,100934.44
2023-04-22T07:31:45.159Z,100938.69
2023-04-22T07:34:12.643Z,100938.19
2023-04-22T07:36:40.332Z,100937.81
2023-04-22T07:39:09.734Z,100942.78
2023-04-22T07:41:37.110Z,100938.09
2023-04-22T07:44:04.402Z,100935.25
2023-04-22T07:46:31.830Z,100936.91
2023-04-22T07:48:59.349Z,100937.94
2023-04-22T07:51:27.018Z,100939.22
2023-04-22T07:53:54.348Z,100934.63
2023-04-22T07:56:22.853Z,100929.75
2023-04-22T07:58:50.118Z,100936.66
2023-04-22T08:01:19.995Z,100933.22
2023-04-22T08:03:48.239Z,100931.72
2023-04-22T08:06:16.007Z,100933.09
2023-04-22T08:08:43.763Z,100931.09
2023-04-22T08:11:11.492Z,100941.13
2023-04-22T08:13:39.215Z,100920.16
2023-04-22T08:16:07.575Z,100935.88
2023-04-22T08:18:35.465Z,100930.78
2023-04-22T08:21:02.840Z,100935.75
2023-04-22T08:23:30.104Z,100942.84
2023-04-22T08:25:58.430Z,100939.31
2023-04-22T08:28:25.894Z,100936.63
2023-04-22T08:30:53.643Z,100936.09
2023-04-22T08:33:21.002Z,100936.47
2023-04-22T08:35:48.408Z,100931.78
2023-04-22T08:38:15.924Z,100941.56
2023-04-22T08:40:43.499Z,100937.31
2023-04-22T08:43:12.041Z,100934.44
2023-04-22T08:45:39.936Z,100938.88
2023-04-22T08:48:09.054Z,100939.13
2023-04-22T08:50:37.910Z,100930.03
2023-04-22T08:53:06.177Z,100927.19
2023-04-22T08:55:35.685Z,100932.84
2023-04-22T08:58:04.440Z,100944.03
2023-04-22T09:00:34.377Z,100933.16
2023-04-22T09:03:03.186Z,100931.00
2023-04-22T09:05:32.860Z,100922.47
2023-04-22T09:08:00.181Z,100919.66
2023-04-22T09:10:28.459Z,100915.16
2023-04-22T09:12:57.076Z,100917.22
2023-04-22T09:15:25.456Z,100911.78
2023-04-22T09:17:53.005Z,100905.59
2023-04-22T09:20:25.768Z,100905.84
2023-04-22T09:22:53.351Z,100903.44
2023-04-22T09:25:22.330Z,100902.19
2023-04-22T09:27:51.707Z,100891.72
2023-04-22T09:30:23.242Z,100891.41
2023-04-22T09:32:56.688Z,100896.16
2023-04-22T09:35:28.986Z,100890.59
2023-04-22T09:37:58.102Z,100891.47
2023-04-22T09:40:25.695Z,100885.16
2023-04-22T09:42:54.503Z,100889.56
2023-04-22T09:45:29.292Z,100889.66
2023-04-22T09:47:58.056Z,100879.22
2023-04-22T09:50:27.042Z,100874.31
2023-04-22T09:52:55.616Z,100882.72
2023-04-22T09:55:26.427Z,100880.84
2023-04-22T09:57:55.459Z,100882.41
2023-04-22T10:00:29.936Z,100871.03
2023-04-22T10:02:57.841Z,100874.72
2023-04-22T10:05:25.504Z,100870.38
2023-04-22T10:07:53.081Z,100874.94
2023-04-22T10:10:20.895Z,100879.41
2023-04-22T10:12:49.173Z,100878.69
2023-04-22T10:15:16.560Z,100873.59
2023-04-22T10:17:45.370Z,100876.34
2023-04-22T10:20:16.605Z,100880.69
2023-04-22T10:22:44.096Z,100877.56
2023-04-22T10:25:29.341Z,100865.16
2023-04-22T10:28:03.404Z,100875.56
2023-04-22T10:30:32.443Z,100868.03
2023-04-22T10:33:18.744Z,100865.03
2023-04-22T10:36:04.571Z,100865.31
2023-04-22T10:38:36.756Z,100864.09
2023-04-22T10:41:04.484Z,100873.41
2023-04-22T10:43:41.831Z,100853.03
2023-04-22T10:46:29.098Z,100851.63
2023-04-22T10:49:00.516Z,100853.19
2023-04-22T10:51:40.800Z,100849.03
2023-04-22T10:54:31.365Z,100847.84
2023-04-22T10:57:11.544Z,100838.16
2023-04-22T10:59:51.813Z,100840.84
2023-04-22T11:02:20.893Z,100831.06
2023-04-22T11:04:48.944Z,100835.94
2023-04-22T11:07:30.002Z,100835.59
2023-04-22T11:10:03.097Z,100844.47
2023-04-22T11:12:33.966Z,100832.09
2023-04-22T11:15:02.123Z,100838.31
2023-04-22T11:17:32.251Z,100837.78
2023-04-22T11:20:00.166Z,100823.78
2023-04-22T11:22:28.558Z,100822.28
2023-04-22T11:24:56.872Z,100826.41
2023-04-22T11:27:27.743Z,100822.56
2023-04-22T11:30:05.073Z,100820.16
2023-04-22T11:32:33.050Z,100824.03
2023-04-22T11:35:04.006Z,100815.78
2023-04-22T11:37:31.727Z,100820.28
2023-04-22T11:40:17.435Z,100818.75
2023-04-22T11:42:48.691Z,100819.78
2023-04-22T11:45:17.306Z,100803.03
2023-04-22T11:47:46.465Z,100811.59
2023-04-22T11:50:14.486Z,100805.91
2023-04-22T11:52:45.297Z,100797.34
2023-04-22T11:55:13.961Z,100798.91
2023-04-22T11:57:42.109Z,100796.13
2023-04-22T12:00:14.040Z,100787.66
2023-04-22T12:02:42.284Z,100786.75
2023-04-22T12:05:12.490Z,100780.66
2023-04-22T12:07:40.040Z,100778.13
2023-04-22T12:10:07.935Z,100788.97
2023-04-22T12:12:37.210Z,100780.41
2023-04-22T12:15:13.618Z,100774.53
2023-04-22T12:17:44.583Z,100780.84
2023-04-22T12:20:13.339Z,100785.56
2023-04-22T12:22:41.238Z,100786.13
2023-04-22T12:25:09.439Z,100787.72
2023-04-22T12:27:36.955Z,100781.13
2023-04-22T12:30:04.590Z,100780.34
2023-04-22T12:32:32.861Z,100763.38
2023-04-22T12:35:00.641Z,100776.84
2023-04-22T12:37:28.147Z,100768.56
2023-04-22T12:39:55.561Z,100770.75
2023-04-22T12:42:22.874Z,100773.16
2023-04-22T12:44:50.178Z,100777.63
2023-04-22T12:47:18.275Z,100775.28
2023-04-22T12:49:47.442Z,100763.72
2023-04-22T12:52:15.139Z,100767.66
2023-04-22T12:54:42.458Z,100769.59
2023-04-22T12:57:10.387Z,100765.59
2023-04-22T12:59:38.234Z,100760.13
2023-04-22T13:02:06.344Z,100764.97
2023-04-22T13:04:34.144Z,100765.75
2023-04-22T13:07:01.456Z,100752.16
2023-04-22T13:09:29.393Z,100758.16
2023-04-22T13:11:57.603Z,100753.41
2023-04-22T13:14:26.120Z,100747.19
2023-04-22T13:16:53.784Z,100741.06
2023-04-22T13:19:21.163Z,100738.44
2023-04-22T13:21:48.381Z,100735.88
2023-04-22T13:24:15.752Z,100747.31
2023-04-22T13:26:43.449Z,100738.81
2023-04-22T13:29:14.179Z,100744.84
2023-04-22T13:31:44.865Z,100735.28
2023-04-22T13:34:12.322Z,100740.38
2023-04-22T13:36:39.634Z,100741.94
2023-04-22T13:39:08.553Z,100733.34
2023-04-22T13:41:36.148Z,100723.38
2023-04-22T13:44:04.516Z,100719.47
2023-04-22T13:46:31.901Z,100722.53
2023-04-22T13:48:59.422Z,100707.56
2023-04-22T13:51:27.003Z,100712.25
2023-04-22T13:53:54.714Z,100704.66
2023-04-22T13:56:23.128Z,100701.03
2023-04-22T13:58:50.967Z,100704.75
2023-04-22T14:01:18.780Z,100696.22
2023-04-22T14:03:47.228Z,100699.03
2023-04-22T14:06:15.634Z,100693.56
2023-04-22T14:08:43.581Z,100682.69
2023-04-22T14:11:11.562Z,100690.59
2023-04-22T14:13:39.412Z,100687.91
2023-04-22T14:16:11.996Z,100694.38
2023-04-22T14:18:40.492Z,100687.22
2023-04-22T14:21:09.587Z,100695.69
2023-04-22T14:23:37.544Z,100681.88
2023-04-22T14:26:05.717Z,100683.41
2023-04-22T14:28:33.426Z,100687.56
2023-04-22T14:31:00.889Z,100681.38
2023-04-22T14:33:28.408Z,100681.78
2023-04-22T14:35:56.602Z,100675.34
2023-04-22T14:38:24.745Z,100679.16
2023-04-22T14:40:52.363Z,100679.22
2023-04-22T14:43:20.302Z,100677.59
2023-04-22T14:45:47.916Z,100674.44
2023-04-22T14:48:15.699Z,100671.22
2023-04-22T14:50:43.824Z,100673.78
2023-04-22T14:53:11.135Z,100671.91
2023-04-22T14:55:38.910Z,100670.09
2023-04-22T14:58:06.350Z,100680.09
2023-04-22T15:00:33.642Z,100675.81
2023-04-22T15:03:01.157Z,100671.50
2023-04-22T15:05:29.095Z,100677.28
2023-04-22T15:07:57.813Z,100676.31
2023-04-22T15:10:26.582Z,100670.44
2023-04-22T15:12:54.370Z,100671.16
2023-04-22T15:15:21.824Z,100673.97
2023-04-22T15:17:49.204Z,100671.63
2023-04-22T15:20:17.028Z,100667.56
2023-04-22T15:22:44.648Z,100671.63
2023-04-22T15:25:12.001Z,100667.69
2023-04-22T15:27:39.394Z,100666.44
2023-04-22T15:30:07.566Z,100666.53
2023-04-22T15:32:35.771Z,100667.13
2023-04-22T15:35:03.346Z,100669.34
2023-04-22T15:37:31.396Z,100666.63
2023-04-22T15:39:59.392Z,100665.56
2023-04-22T15:42:27.219Z,100664.25
2023-04-22T15:44:54.549Z,100665.81
2023-04-22T15:47:22.407Z,100664.22
2023-04-22T15:49:50.085Z,100652.31
2023-04-22T15:52:19.489Z,100655.97
2023-04-22T15:54:47.321Z,100660.56
2023-04-22T15:57:15.142Z,100659.09
2023-04-22T15:59:42.657Z,100658.81
2023-04-22T16:02:10.486Z,100658.19
2023-04-22T16:04:38.446Z,100657.06
2023-04-22T16:07:06.067Z,100657.66
2023-04-22T16:09:34.164Z,100653.78
2023-04-22T16:12:01.615Z,100651.91
2023-04-22T16:14:28.947Z,100657.44
2023-04-22T16:16:56.626Z,100651.91
2023-04-22T16:19:24.565Z,100651.56
2023-04-22T16:21:51.924Z,100654.38
2023-04-22T16:24:19.470Z,100659.84
2023-04-22T16:26:46.752Z,100649.22
2023-04-22T16:29:14.554Z,100656.50
2023-04-22T16:31:41.846Z,100653.78
2023-04-22T16:34:09.395Z,100653.31
2023-04-22T16:36:37.234Z,100655.69
2023-04-22T16:39:05.138Z,100664.34
2023-04-22T16:41:34.298Z,100654.84
2023-04-22T16:44:01.645Z,100654.72
2023-04-22T16:46:29.540Z,100658.75
2023-04-22T16:48:57.291Z,100659.25
2023-04-22T16:51:24.992Z,100654.28
2023-04-22T16:53:52.262Z,100657.44
2023-04-22T16:56:19.576Z,100659.84
2023-04-22T16:58:47.334Z,100650.81
2023-04-22T17:01:14.757Z,100649.19
2023-04-22T17:03:42.809Z,100653.97
2023-04-22T17:06:12.259Z,100656.63
2023-04-22T17:08:39.988Z,100653.97
2023-04-22T17:11:08.229Z,100655.78
2023-04-22T17:13:35.837Z,100658.03
2023-04-22T17:16:03.703Z,100653.28
2023-04-22T17:18:31.095Z,100657.16
2023-04-22T17:20:58.838Z,100652.50
2023-04-22T17:23:26.995Z,100658.84
2023-04-22T17:25:54.262Z,100660.28
2023-04-22T17:28:21.530Z,100652.72
2023-04-22T17:30:48.768Z,100656.47
2023-04-22T17:33:16.444Z,100672.69
2023-04-22T17:35:43.741Z,100675.25
2023-04-22T17:38:11.119Z,100666.41
2023-04-22T17:40:39.643Z,100669.19
2023-04-22T17:43:06.927Z,100670.72
2023-04-22T17:45:34.227Z,100676.03
2023-04-22T17:48:02.807Z,100674.56
2023-04-22T17:50:30.229Z,100680.47
2023-04-22T17:52:58.230Z,100685.03
2023-04-22T17:55:25.982Z,100684.31
2023-04-22T17:57:53.389Z,100690.56
2023-04-22T18:00:20.961Z,100681.81
2023-04-22T18:02:48.742Z,100686.72
2023-04-22T18:05:16.245Z,100702.22
2023-04-22T18:07:43.917Z,100701.25
2023-04-22T18:10:12.490Z,100698.06
2023-04-22T18:12:40.792Z,100699.50
2023-04-22T18:15:09.259Z,100696.81
2023-04-22T18:17:36.625Z,100701.50
2023-04-22T18:20:16.633Z,100695.50
2023-04-22T18:22:46.764Z,100704.00
2023-04-22T18:25:15.109Z,100705.66
2023-04-22T18:27:42.889Z,100708.78
2023-04-22T18:30:10.305Z,100716.50
2023-04-22T18:32:37.660Z,100712.81
2023-04-22T18:35:05.361Z,100711.16
2023-04-22T18:37:34.577Z,100724.00
2023-04-22T18:40:03.214Z,100712.69
2023-04-22T18:42:30.690Z,100724.50
2023-04-22T18:44:58.422Z,100724.00
2023-04-22T18:47:26.846Z,100727.50
2023-04-22T18:49:54.462Z,100730.69
2023-04-22T18:52:21.957Z,100726.66
2023-04-22T18:54:49.270Z,100732.97
2023-04-22T18:57:17.447Z,100731.31
2023-04-22T18:59:45.109Z,100745.47
2023-04-22T19:02:13.123Z,100740.31
2023-04-22T19:04:41.165Z,100744.47
2023-04-22T19:07:08.754Z,100748.81
2023-04-22T19:09:36.441Z,100755.81
2023-04-22T19:12:05.147Z,100751.63
2023-04-22T19:14:32.442Z,100751.63
2023-04-22T19:17:00.133Z,100758.63
2023-04-22T19:19:27.453Z,100758.78
2023-04-22T19:21:55.165Z,100758.09
2023-04-22T19:24:22.497Z,100767.38
2023-04-22T19:26:49.777Z,100764.78
2023-04-22T19:29:17.121Z,100773.06
2023-04-22T19:31:45.098Z,100766.94
2023-04-22T19:34:13.363Z,100762.78
2023-04-22T19:36:41.215Z,100762.13
2023-04-22T19:39:08.654Z,100766.81
2023-04-22T19:41:38.011Z,100771.16
2023-04-22T19:44:05.386Z,100758.13
2023-04-22T19:46:33.645Z,100761.34
2023-04-22T19:49:01.408Z,100757.97
2023-04-22T19:51:28.666Z,100759.47
2023-04-22T19:53:57.383Z,100753.16
2023-04-22T19:56:25.186Z,100758.47
2023-04-22T19:58:52.704Z,100753.81
2023-04-22T20:01:20.169Z,100749.31
2023-04-22T20:03:48.581Z,100753.81
2023-04-22T20:06:16.472Z,100755.16
2023-04-22T20:08:44.238Z,100760.47
2023-04-22T20:11:12.219Z,100759.81
2023-04-22T20:13:42.235Z,100759.78
2023-04-22T20:16:10.704Z,100759.09
2023-04-22T20:18:38.204Z,100759.38
2023-04-22T20:21:05.544Z,100751.88
2023-04-22T20:23:34.074Z,100754.97
2023-04-22T20:26:02.876Z,100754.34
2023-04-22T20:28:52.009Z,100754.22
2023-04-22T20:31:22.442Z,100750.69
2023-04-22T20:33:50.363Z,100751.66
2023-04-22T20:36:19.678Z,100740.94
2023-04-22T20:38:49.160Z,100753.88
2023-04-22T20:41:20.860Z,100755.53
2023-04-22T20:43:48.450Z,100763.50
2023-04-22T20:46:16.191Z,100760.81
2023-04-22T20:48:43.988Z,100762.31
2023-04-22T20:51:12.472Z,100769.41
2023-04-22T20:53:43.059Z,100772.00
2023-04-22T20:56:10.470Z,100765.63
2023-04-22T20:58:38.332Z,100766.19
2023-04-22T21:01:07.981Z,100772.78
2023-04-22T21:03:35.846Z,100769.91
2023-04-22T21:06:03.754Z,100770.88
2023-04-22T21:08:33.903Z,100772.94
2023-04-22T21:11:01.461Z,100772.94
2023-04-22T21:13:29.281Z,100772.31
2023-04-22T21:16:02.555Z,100777.72
2023-04-22T21:18:32.297Z,100787.03
2023-04-22T21:21:01.909Z,100779.53
2023-04-22T21:23:29.992Z,100781.94
2023-04-22T21:25:59.863Z,100783.06
2023-04-22T21:28:27.951Z,100777.06
2023-04-22T21:30:55.564Z,100780.13
2023-04-22T21:33:25.189Z,100769.19
2023-04-22T21:35:53.254Z,100772.56
2023-04-22T21:38:20.897Z,100776.78
2023-04-22T21:40:48.324Z,100771.69
2023-04-22T21:43:16.001Z,100777.22
2023-04-22T21:45:43.422Z,100776.09
2023-04-22T21:48:11.202Z,100777.47
2023-04-22T21:50:38.558Z,100778.31
2023-04-22T21:53:05.965Z,100783.00
2023-04-22T21:55:33.255Z,100778.88
2023-04-22T21:58:01.020Z,100788.03
2023-04-22T22:00:28.823Z,100778.50
2023-04-22T22:02:56.376Z,100784.22
2023-04-22T22:05:24.260Z,100781.44
2023-04-22T22:07:52.932Z,100777.72
2023-04-22T22:10:20.322Z,100774.97
2023-04-22T22:12:48.221Z,100775.84
2023-04-22T22:15:16.348Z,100777.97
2023-04-22T22:17:44.782Z,100782.06
2023-04-22T22:20:13.925Z,100777.94
2023-04-22T22:22:42.392Z,100779.75
2023-04-22T22:25:11.560Z,100778.63
2023-04-22T22:27:45.828Z,100771.59
2023-04-22T22:30:13.787Z,100783.88
2023-04-22T22:32:41.367Z,100773.63
2023-04-22T22:35:09.358Z,100769.00
2023-04-22T22:37:37.448Z,100775.19
2023-04-22T22:40:05.868Z,100765.03
2023-04-22T22:42:33.576Z,100764.06
2023-04-22T22:45:01.120Z,100767.16
2023-04-22T22:47:28.470Z,100772.03
2023-04-22T22:49:56.501Z,100762.25
2023-04-22T22:52:23.871Z,100772.16
2023-04-22T22:54:52.362Z,100764.06
2023-04-22T22:57:19.743Z,100760.56
2023-04-22T22:59:47.082Z,100771.50
2023-04-22T23:02:14.475Z,100761.56
2023-04-22T23:04:42.113Z,100762.38
2023-04-22T23:07:10.678Z,100759.19
2023-04-22T23:09:38.531Z,100756.22
2023-04-22T23:12:06.896Z,100756.66
2023-04-22T23:14:35.162Z,100753.91
2023-04-22T23:17:03.073Z,100756.84
2023-04-22T23:19:31.861Z,100752.81
2023-04-22T23:22:00.100Z,100747.22
2023-04-22T23:24:27.955Z,100747.03
2023-04-22T23:26:55.528Z,100742.16
2023-04-22T23:29:23.055Z,100743.59
2023-04-22T23:31:51.341Z,100742.66
2023-04-22T23:34:20.136Z,100742.50
2023-04-22T23:36:47.792Z,100730.41
2023-04-22T23:39:15.105Z,100722.09
2023-04-22T23:41:42.777Z,100716.88
2023-04-22T23:44:10.407Z,100722.13
2023-04-22T23:46:38.847Z,100715.31
2023-04-22T23:49:07.233Z,100716.28
2023-04-22T23:51:35.157Z,100719.47
2023-04-22T23:54:03.450Z,100722.59
2023-04-22T23:56:31.358Z,100718.31
2023-04-22T23:58:59.908Z,100714.94
